KPHF/PHF METAR and TAF weather

Enter ICAO airport designator
Station Type Date Time Source
KPHF METAR 2022/01/23 11:54 UTC NOAA

KPHF 231154Z 23004KT 10SM CLR M05/M08 A3007 RMK AO2 SLP183 I1001 I6001 T10501078 11050 21083 55010


Station Type Date Time Source
KPHF Decoded METAR 2022/01/23 11:54 UTC NOAA

WILLIAMSBURG INTERNATIONAL AIRPORT , VA, United States (KPHF) 37-08N 76-30W 12M
Jan 23, 2022 - 06:54 AM EST / 2022.01.23 1154 UTC
Wind: from the SW (230 degrees) at 5 MPH (4 KT):0
Visibility: 10 mile(s):0
Sky conditions: clear
Temperature: 23.0 F (-5.0 C)
Windchill: 15 F (-9 C):1
Dew Point: 18.0 F (-7.8 C)
Relative Humidity: 80%
Pressure (altimeter): 30.07 in. Hg (1018 hPa)
Pressure tendency: 0.03 inches (1.0 hPa) lower than three hours ago
ob: KPHF 231154Z 23004KT 10SM CLR M05/M08 A3007 RMK AO2 SLP183 I1001 I6001 T10501078 11050 21083 55010
cycle: 12

Station Type Date Time Source
KPHF TAF 2022/01/23 12:22 UTC NOAA

TAF KPHF 231120Z 2312/2412 VRB04KT P6SM SKC
FM231800 24005KT P6SM FEW200
FM240000 22006KT P6SM SCT250

Example: see airport list